Time;durP1;ratioP1;P1;durP2;ratioP2;P2;SDS_P1;SDS_P2;PMS_P1;PMS_P2;Temp;Humidity;BMP_temperature;BMP_pressure;BME280_temperature;BME280_humidity;BME280_pressure;Samples;Min_cycle;Max_cycle;Signal;HPM_P1;HPM_P2
2023/07/27 00:00:53;;;;;;;;;;;;;;;;;;5096209;28;20412;-89
2023/07/27 00:03:19;;;;;;;;;;;;;;;;;;5096194;28;19989;-89
2023/07/27 00:05:45;;;;;;;;;;;;;;;;;;5113085;28;19920;-89
2023/07/27 00:08:10;;;;;;;;;;;;;;;;;;5113260;28;19920;-89
2023/07/27 00:10:36;;;;;;;;;;;;;;;;;;5113412;28;19927;-89
2023/07/27 00:13:02;;;;;;;;;;;;;;;;;;5097512;28;19938;-89
2023/07/27 00:15:28;;;;;;;;;;;;;;;;;;5115040;28;19927;-89
2023/07/27 00:17:54;;;;;;;;;;;;;;;;;;5113223;28;19927;-88
2023/07/27 00:20:20;;;;;;;;;;;;;;;;;;5115084;28;19923;-90
2023/07/27 00:22:46;;;;;;;;;;;;;;;;;;5113592;28;19972;-90
2023/07/27 00:25:12;;;;;;;;;;;;;;;;;;5113392;28;19919;-90
2023/07/27 00:27:38;;;;;;;;;;;;;;;;;;5112860;28;19919;-90
2023/07/27 00:30:04;;;;;;;;;;;;;;;;;;5096062;28;19920;-89
2023/07/27 00:32:30;;;;;;;;;;;;;;;;;;5095793;28;19919;-90
2023/07/27 00:34:56;;;;;;;;;;;;;;;;;;5113140;28;19977;-90
2023/07/27 00:37:22;;;;;;;;;;;;;;;;;;5114262;28;19931;-90
2023/07/27 00:39:48;;;;;;;;;;;;;;;;;;5095932;28;19969;-90
2023/07/27 00:42:16;;;;;;;;;;;;;;;;;;5112770;28;19924;-90
2023/07/27 00:44:42;;;;;;;;;;;;;;;;;;5112626;28;20419;-90
2023/07/27 00:47:08;;;;;;;;;;;;;;;;;;5112367;28;19920;-90
2023/07/27 00:49:34;;;;;;;;;;;;;;;;;;5113649;28;19926;-90
2023/07/27 00:52:05;;;;;;;;;;;;;;;;;;5112740;28;19919;-89
2023/07/27 00:54:31;;;;;;;;;;;;;;;;;;5112598;28;19920;-90
2023/07/27 00:56:57;;;;;;;;;;;;;;;;;;5112172;28;19924;-90
2023/07/27 00:59:23;;;;;;;;;;;;;;;;;;5095244;28;19920;-89
2023/07/27 01:01:49;;;;;;;;;;;;;;;;;;5111982;28;20291;-90
2023/07/27 01:04:15;;;;;;;;;;;;;;;;;;5113150;28;19923;-89
2023/07/27 01:06:41;;;;;;;;;;;;;;;;;;5094897;28;19965;-90
2023/07/27 01:09:07;;;;;;;;;;;;;;;;;;5113375;28;19993;-90
2023/07/27 01:11:33;;;;;;;;;;;;;;;;;;5113570;28;20433;-90
2023/07/27 01:13:58;;;;;;;;;;;;;;;;;;5112208;28;19919;-90
2023/07/27 01:16:24;;;;;;;;;;;;;;;;;;5112188;28;20379;-91
2023/07/27 01:18:50;;;;;;;;;;;;;;;;;;5111929;28;19919;-89
2023/07/27 01:21:16;;;;;;;;;;;;;;;;;;5113062;28;19924;-89
2023/07/27 01:23:42;;;;;;;;;;;;;;;;;;5113234;28;20002;-90
2023/07/27 01:26:08;;;;;;;;;;;;;;;;;;5112040;28;19966;-89
2023/07/27 01:28:34;;;;;;;;;;;;;;;;;;5094837;28;19920;-90
2023/07/27 01:31:00;;;;;;;;;;;;;;;;;;5113198;28;19926;-90
2023/07/27 01:33:26;;;;;;;;;;;;;;;;;;5094874;28;20391;-90
2023/07/27 01:35:52;;;;;;;;;;;;;;;;;;5113252;28;20263;-90
2023/07/27 01:38:18;;;;;;;;;;;;;;;;;;5111784;28;19919;-90
2023/07/27 01:40:44;;;;;;;;;;;;;;;;;;5094844;28;20037;-90
2023/07/27 01:43:09;;;;;;;;;;;;;;;;;;5111937;28;19920;-90
2023/07/27 01:45:35;;;;;;;;;;;;;;;;;;5094890;28;20431;-90
2023/07/27 01:48:01;;;;;;;;;;;;;;;;;;5111576;28;19943;-90
2023/07/27 01:50:27;;;;;;;;;;;;;;;;;;5112245;28;20375;-90
2023/07/27 01:52:53;;;;;;;;;;;;;;;;;;5111839;28;20035;-90
2023/07/27 01:55:19;;;;;;;;;;;;;;;;;;5111641;28;20034;-90
2023/07/27 01:57:45;;;;;;;;;;;;;;;;;;5094544;28;19999;-90
2023/07/27 02:00:11;;;;;;;;;;;;;;;;;;5111549;28;19920;-90
2023/07/27 02:02:37;;;;;;;;;;;;;;;;;;5112731;28;19927;-90
2023/07/27 02:05:03;;;;;;;;;;;;;;;;;;5111808;28;19979;-90
2023/07/27 02:07:29;;;;;;;;;;;;;;;;;;5111479;28;20341;-90
2023/07/27 02:09:55;;;;;;;;;;;;;;;;;;5111773;28;19920;-91
2023/07/27 02:12:21;;;;;;;;;;;;;;;;;;5111513;28;19963;-90
2023/07/27 02:14:46;;;;;;;;;;;;;;;;;;5111493;28;19971;-89
2023/07/27 02:17:12;;;;;;;;;;;;;;;;;;5094140;28;20006;-89
2023/07/27 02:19:38;;;;;;;;;;;;;;;;;;5094182;28;20028;-89
2023/07/27 02:22:04;;;;;;;;;;;;;;;;;;5112526;28;20018;-90
2023/07/27 02:24:30;;;;;;;;;;;;;;;;;;5111288;28;20413;-90
2023/07/27 02:26:56;;;;;;;;;;;;;;;;;;5111340;28;19927;-89
2023/07/27 02:29:22;;;;;;;;;;;;;;;;;;5112653;28;19920;-90
2023/07/27 02:31:48;;;;;;;;;;;;;;;;;;5111164;28;20325;-89
2023/07/27 02:34:14;;;;;;;;;;;;;;;;;;5113609;28;19924;-89
2023/07/27 02:36:40;;;;;;;;;;;;;;;;;;5116155;28;19926;-89
2023/07/27 02:39:05;;;;;;;;;;;;;;;;;;5098929;28;19930;-95
2023/07/27 02:41:31;;;;;;;;;;;;;;;;;;5098078;28;19923;-91
2023/07/27 02:43:57;;;;;;;;;;;;;;;;;;5115198;28;19949;-92
2023/07/27 02:46:23;;;;;;;;;;;;;;;;;;5115601;28;19965;-91
2023/07/27 02:48:49;;;;;;;;;;;;;;;;;;5116612;28;20019;-91
2023/07/27 02:51:15;;;;;;;;;;;;;;;;;;5116545;28;19956;-91
2023/07/27 02:53:41;;;;;;;;;;;;;;;;;;5115288;28;19920;-91
2023/07/27 02:56:07;;;;;;;;;;;;;;;;;;5115033;28;19923;-90
2023/07/27 02:58:33;;;;;;;;;;;;;;;;;;5098298;28;20287;-91
2023/07/27 03:00:59;;;;;;;;;;;;;;;;;;5098119;28;19924;-91
2023/07/27 03:03:25;;;;;;;;;;;;;;;;;;5115025;28;19919;-91
2023/07/27 03:05:50;;;;;;;;;;;;;;;;;;5097781;28;19920;-91
2023/07/27 03:08:16;;;;;;;;;;;;;;;;;;5098105;28;19919;-91
2023/07/27 03:10:42;;;;;;;;;;;;;;;;;;5114967;28;19919;-88
2023/07/27 03:13:08;;;;;;;;;;;;;;;;;;5097736;28;19930;-90
2023/07/27 03:15:34;;;;;;;;;;;;;;;;;;5097190;28;19935;-90
2023/07/27 03:18:00;;;;;;;;;;;;;;;;;;5097290;28;19926;-91
2023/07/27 03:20:26;;;;;;;;;;;;;;;;;;5114401;28;20011;-91
2023/07/27 03:22:52;;;;;;;;;;;;;;;;;;5097744;28;19926;-91
2023/07/27 03:25:18;;;;;;;;;;;;;;;;;;5115786;28;19920;-91
2023/07/27 03:27:44;;;;;;;;;;;;;;;;;;5115536;28;19920;-91
2023/07/27 03:30:09;;;;;;;;;;;;;;;;;;5114466;28;19927;-91
2023/07/27 03:32:35;;;;;;;;;;;;;;;;;;5114115;28;19924;-91
2023/07/27 03:35:01;;;;;;;;;;;;;;;;;;5114456;28;19919;-90
2023/07/27 03:37:27;;;;;;;;;;;;;;;;;;5097506;28;20023;-91
2023/07/27 03:39:53;;;;;;;;;;;;;;;;;;5115788;28;19927;-91
2023/07/27 03:42:19;;;;;;;;;;;;;;;;;;5115245;28;19923;-91
2023/07/27 03:44:45;;;;;;;;;;;;;;;;;;5114820;28;19923;-90
2023/07/27 03:47:11;;;;;;;;;;;;;;;;;;5113821;28;19920;-90
2023/07/27 03:49:37;;;;;;;;;;;;;;;;;;5113631;28;19919;-90
2023/07/27 03:52:03;;;;;;;;;;;;;;;;;;5097166;28;19950;-90
2023/07/27 03:54:29;;;;;;;;;;;;;;;;;;5113717;28;19996;-92
2023/07/27 03:56:55;;;;;;;;;;;;;;;;;;5113873;28;20363;-90
2023/07/27 03:59:21;;;;;;;;;;;;;;;;;;5113663;28;19919;-91
2023/07/27 04:01:46;;;;;;;;;;;;;;;;;;5114930;28;19977;-90
2023/07/27 04:04:13;;;;;;;;;;;;;;;;;;5096652;28;19920;-90
2023/07/27 04:06:39;;;;;;;;;;;;;;;;;;5113471;28;19981;-90
2023/07/27 04:09:05;;;;;;;;;;;;;;;;;;5113488;28;19927;-90
2023/07/27 04:11:31;;;;;;;;;;;;;;;;;;5096291;28;19989;-90
2023/07/27 04:13:56;;;;;;;;;;;;;;;;;;5114422;28;19919;-90
2023/07/27 04:16:22;;;;;;;;;;;;;;;;;;5113588;28;19973;-91
2023/07/27 04:18:48;;;;;;;;;;;;;;;;;;5112969;28;20317;-89
2023/07/27 04:21:14;;;;;;;;;;;;;;;;;;5112974;28;19973;-91
2023/07/27 04:23:40;;;;;;;;;;;;;;;;;;5113004;28;19964;-90
2023/07/27 04:26:06;;;;;;;;;;;;;;;;;;5112514;28;19923;-89
2023/07/27 04:28:32;;;;;;;;;;;;;;;;;;5112861;28;19920;-89
2023/07/27 04:30:58;;;;;;;;;;;;;;;;;;5112378;28;20331;-88
2023/07/27 04:33:24;;;;;;;;;;;;;;;;;;5112653;28;20268;-89
2023/07/27 04:35:50;;;;;;;;;;;;;;;;;;5112401;28;19927;-88
2023/07/27 04:38:16;;;;;;;;;;;;;;;;;;5112146;28;20410;-88
2023/07/27 04:40:41;;;;;;;;;;;;;;;;;;5113516;28;19924;-89
2023/07/27 04:43:07;;;;;;;;;;;;;;;;;;5113573;28;20014;-89
2023/07/27 04:45:33;;;;;;;;;;;;;;;;;;5114091;28;19926;-89
2023/07/27 04:47:59;;;;;;;;;;;;;;;;;;5113518;28;20358;-89
2023/07/27 04:50:25;;;;;;;;;;;;;;;;;;5112402;28;20027;-90
2023/07/27 04:52:51;;;;;;;;;;;;;;;;;;5112510;28;19927;-89
2023/07/27 04:55:17;;;;;;;;;;;;;;;;;;5113282;28;19924;-90
2023/07/27 04:57:43;;;;;;;;;;;;;;;;;;5111752;28;19920;-90
2023/07/27 05:00:09;;;;;;;;;;;;;;;;;;5095189;28;20045;-91
2023/07/27 05:02:35;;;;;;;;;;;;;;;;;;5095509;28;20030;-90
2023/07/27 05:05:00;;;;;;;;;;;;;;;;;;5113747;28;19927;-89
2023/07/27 05:07:26;;;;;;;;;;;;;;;;;;5095057;28;20268;-90
2023/07/27 05:09:52;;;;;;;;;;;;;;;;;;5112020;28;19920;-89
2023/07/27 05:12:18;;;;;;;;;;;;;;;;;;5111801;28;19981;-90
2023/07/27 05:14:44;;;;;;;;;;;;;;;;;;5113408;28;20400;-90
2023/07/27 05:17:10;;;;;;;;;;;;;;;;;;5113068;28;20355;-90
2023/07/27 05:19:36;;;;;;;;;;;;;;;;;;5113214;28;19920;-90
2023/07/27 05:22:02;;;;;;;;;;;;;;;;;;5111908;28;20332;-89
2023/07/27 05:24:28;;;;;;;;;;;;;;;;;;5113318;28;19920;-90
2023/07/27 05:26:54;;;;;;;;;;;;;;;;;;5111318;28;20348;-88
2023/07/27 05:29:20;;;;;;;;;;;;;;;;;;5111665;28;19920;-89
2023/07/27 05:31:47;;;;;;;;;;;;;;;;;;5112019;28;19924;-90
2023/07/27 05:34:13;;;;;;;;;;;;;;;;;;5111583;28;19974;-89
2023/07/27 05:36:39;;;;;;;;;;;;;;;;;;5112871;28;20033;-89
2023/07/27 05:39:04;;;;;;;;;;;;;;;;;;5111374;28;20291;-89
2023/07/27 05:41:30;;;;;;;;;;;;;;;;;;5111288;28;19963;-86
2023/07/27 05:43:56;;;;;;;;;;;;;;;;;;5111400;28;20014;-87
2023/07/27 05:46:22;;;;;;;;;;;;;;;;;;5112664;28;19927;-87
2023/07/27 05:48:48;;;;;;;;;;;;;;;;;;5111485;28;20286;-92
2023/07/27 05:51:14;;;;;;;;;;;;;;;;;;5094875;28;20010;-88
2023/07/27 05:53:40;;;;;;;;;;;;;;;;;;5094491;28;20028;-88
2023/07/27 05:56:06;;;;;;;;;;;;;;;;;;5112395;28;20029;-89
2023/07/27 05:58:32;;;;;;;;;;;;;;;;;;5112909;28;20599;-88
2023/07/27 06:00:59;;;;;;;;;;;;;;;;;;5111527;28;19924;-89
2023/07/27 06:03:25;;;;;;;;;;;;;;;;;;5094019;28;19919;-89
2023/07/27 06:05:51;;;;;;;;;;;;;;;;;;5094206;28;19926;-88
2023/07/27 06:08:17;;;;;;;;;;;;;;;;;;5111955;28;20375;-89
2023/07/27 06:10:43;;;;;;;;;;;;;;;;;;5115391;28;19923;-87
2023/07/27 06:13:08;;;;;;;;;;;;;;;;;;5116928;28;19981;-87
2023/07/27 06:15:34;;;;;;;;;;;;;;;;;;5116634;28;19984;-87
2023/07/27 06:18:00;;;;;;;;;;;;;;;;;;5115186;28;19919;-87
2023/07/27 06:20:26;;;;;;;;;;;;;;;;;;5115100;28;20393;-87
2023/07/27 06:22:52;;;;;;;;;;;;;;;;;;5115257;28;19919;-87
2023/07/27 06:25:18;;;;;;;;;;;;;;;;;;5110704;28;19924;-89
2023/07/27 06:27:44;;;;;;;;;;;;;;;;;;5077550;28;20279;-88
2023/07/27 06:30:12;;;;;;;;;;;;;;;;;;5094854;28;19920;-88
2023/07/27 06:32:38;;;;;;;;;;;;;;;;;;5095116;28;20337;-88
2023/07/27 06:35:04;;;;;;;;;;;;;;;;;;5111849;28;19934;-88
2023/07/27 06:37:30;;;;;;;;;;;;;;;;;;5114694;28;19920;-88
2023/07/27 06:39:55;;;;;;;;;;;;;;;;;;5114944;28;20019;-88
2023/07/27 06:42:21;;;;;;;;;;;;;;;;;;5097590;28;20289;-88
2023/07/27 06:44:47;;;;;;;;;;;;;;;;;;5114673;28;19919;-89
2023/07/27 06:47:13;;;;;;;;;;;;;;;;;;5097677;28;19920;-88
2023/07/27 06:49:39;;;;;;;;;;;;;;;;;;5114346;28;19919;-88
2023/07/27 06:52:07;;;;;;;;;;;;;;;;;;5115691;28;19931;-88
2023/07/27 06:54:32;;;;;;;;;;;;;;;;;;5097604;28;19923;-88
2023/07/27 06:56:58;;;;;;;;;;;;;;;;;;5113920;28;20016;-88
2023/07/27 06:59:24;;;;;;;;;;;;;;;;;;5114590;28;20276;-89
2023/07/27 07:01:51;;;;;;;;;;;;;;;;;;5114574;28;19923;-89
2023/07/27 07:04:17;;;;;;;;;;;;;;;;;;5114517;28;19924;-88
2023/07/27 07:06:43;;;;;;;;;;;;;;;;;;5116053;28;19931;-89
2023/07/27 07:09:09;;;;;;;;;;;;;;;;;;5114169;28;19943;-89
2023/07/27 07:11:35;;;;;;;;;;;;;;;;;;5114070;28;20399;-87
2023/07/27 07:14:01;;;;;;;;;;;;;;;;;;5097160;28;19919;-88
2023/07/27 07:16:26;;;;;;;;;;;;;;;;;;5114563;28;19973;-88
2023/07/27 07:18:52;;;;;;;;;;;;;;;;;;5115065;28;19919;-95
2023/07/27 07:21:19;;;;;;;;;;;;;;;;;;5099025;28;19923;-88
2023/07/27 07:23:45;;;;;;;;;;;;;;;;;;5114398;28;19969;-86
2023/07/27 07:26:10;;;;;;;;;;;;;;;;;;5114300;28;19919;-88
2023/07/27 07:28:36;;;;;;;;;;;;;;;;;;5113856;28;19931;-87
2023/07/27 07:31:03;;;;;;;;;;;;;;;;;;5096994;28;19926;-87
2023/07/27 07:33:29;;;;;;;;;;;;;;;;;;5114476;28;19926;-85
2023/07/27 07:35:55;;;;;;;;;;;;;;;;;;5114874;28;20306;-85
2023/07/27 07:38:21;;;;;;;;;;;;;;;;;;5113683;28;19934;-88
2023/07/27 07:40:47;;;;;;;;;;;;;;;;;;5113905;28;19923;-89
2023/07/27 07:43:13;;;;;;;;;;;;;;;;;;5114125;28;19975;-89
2023/07/27 07:45:39;;;;;;;;;;;;;;;;;;5113703;28;19966;-89
2023/07/27 07:48:05;;;;;;;;;;;;;;;;;;5096660;28;19985;-89
2023/07/27 07:50:32;;;;;;;;;;;;;;;;;;5115059;28;19927;-90
2023/07/27 07:52:58;;;;;;;;;;;;;;;;;;5113325;28;20316;-89
2023/07/27 07:55:24;;;;;;;;;;;;;;;;;;5096316;28;19935;-89
2023/07/27 07:57:50;;;;;;;;;;;;;;;;;;5113586;28;19920;-90
2023/07/27 08:00:16;;;;;;;;;;;;;;;;;;5114939;28;20260;-90
2023/07/27 08:02:42;;;;;;;;;;;;;;;;;;5114765;28;19919;-88
2023/07/27 08:05:08;;;;;;;;;;;;;;;;;;5114305;28;20397;-87
2023/07/27 08:07:35;;;;;;;;;;;;;;;;;;5114434;28;19920;-87
2023/07/27 08:10:02;;;;;;;;;;;;;;;;;;5113379;28;19924;-86
2023/07/27 08:12:28;;;;;;;;;;;;;;;;;;5095656;28;19920;-91
2023/07/27 08:14:54;;;;;;;;;;;;;;;;;;5096362;28;19926;-88
2023/07/27 08:17:20;;;;;;;;;;;;;;;;;;5113117;28;20419;-86
2023/07/27 08:19:46;;;;;;;;;;;;;;;;;;5112868;28;19937;-87
2023/07/27 08:22:11;;;;;;;;;;;;;;;;;;5112580;28;19927;-86
2023/07/27 08:24:37;;;;;;;;;;;;;;;;;;5112854;28;19919;-85
2023/07/27 08:27:05;;;;;;;;;;;;;;;;;;5112576;28;19919;-84
2023/07/27 08:29:30;;;;;;;;;;;;;;;;;;5095887;28;19962;-87
2023/07/27 08:31:56;;;;;;;;;;;;;;;;;;5111646;28;19967;-87
2023/07/27 08:34:23;;;;;;;;;;;;;;;;;;5110522;28;19990;-88
2023/07/27 08:36:51;;;;;;;;;;;;;;;;;;5075134;28;19920;-86
2023/07/27 08:39:17;;;;;;;;;;;;;;;;;;5092080;28;20295;-88
2023/07/27 08:41:43;;;;;;;;;;;;;;;;;;5093115;28;19924;-89
2023/07/27 08:44:09;;;;;;;;;;;;;;;;;;5092192;28;20283;-89
2023/07/27 08:46:35;;;;;;;;;;;;;;;;;;5091760;28;20029;-88
2023/07/27 08:49:01;;;;;;;;;;;;;;;;;;5075203;28;19926;-93
2023/07/27 08:51:27;;;;;;;;;;;;;;;;;;5092388;28;20056;-85
2023/07/27 08:53:53;;;;;;;;;;;;;;;;;;5091945;28;20367;-86
2023/07/27 08:56:19;;;;;;;;;;;;;;;;;;5074850;28;19930;-90
2023/07/27 08:58:45;;;;;;;;;;;;;;;;;;5092343;28;19920;-88
2023/07/27 09:01:11;;;;;;;;;;;;;;;;;;5091590;28;20369;-88
2023/07/27 09:03:37;;;;;;;;;;;;;;;;;;5091467;28;19920;-90
2023/07/27 09:06:03;;;;;;;;;;;;;;;;;;5092010;28;20424;-87
2023/07/27 09:08:29;;;;;;;;;;;;;;;;;;5092981;28;19920;-86
2023/07/27 09:10:55;;;;;;;;;;;;;;;;;;5092949;28;19976;-86
2023/07/27 09:13:21;;;;;;;;;;;;;;;;;;5074725;28;19920;-87
2023/07/27 09:15:47;;;;;;;;;;;;;;;;;;5091944;28;20085;-87
2023/07/27 09:18:13;;;;;;;;;;;;;;;;;;5111280;28;20356;-87
2023/07/27 09:20:39;;;;;;;;;;;;;;;;;;5094684;28;20014;-87
2023/07/27 09:23:05;;;;;;;;;;;;;;;;;;5111558;28;20010;-87
2023/07/27 09:25:31;;;;;;;;;;;;;;;;;;5111632;28;20374;-86
2023/07/27 09:27:57;;;;;;;;;;;;;;;;;;5112916;28;19934;-87
2023/07/27 09:30:23;;;;;;;;;;;;;;;;;;5094776;28;19966;-85
2023/07/27 09:32:48;;;;;;;;;;;;;;;;;;5113021;28;19924;-85
2023/07/27 09:35:15;;;;;;;;;;;;;;;;;;5111493;28;20324;-85
2023/07/27 09:37:41;;;;;;;;;;;;;;;;;;5111464;28;19920;-87
2023/07/27 09:40:08;;;;;;;;;;;;;;;;;;5111534;28;19920;-88
2023/07/27 09:42:34;;;;;;;;;;;;;;;;;;5111298;28;20212;-88
2023/07/27 09:44:59;;;;;;;;;;;;;;;;;;5111585;28;19919;-88
2023/07/27 09:47:30;;;;;;;;;;;;;;;;;;5111588;28;19924;-86
2023/07/27 09:49:56;;;;;;;;;;;;;;;;;;5111569;28;19978;-88
2023/07/27 09:52:22;;;;;;;;;;;;;;;;;;5111388;28;19919;-89
2023/07/27 09:54:48;;;;;;;;;;;;;;;;;;5111756;28;20032;-88
2023/07/27 09:57:14;;;;;;;;;;;;;;;;;;5093949;28;19930;-88
2023/07/27 09:59:40;;;;;;;;;;;;;;;;;;5111116;28;19919;-87
2023/07/27 10:02:06;;;;;;;;;;;;;;;;;;5111583;28;19943;-87
2023/07/27 10:04:32;;;;;;;;;;;;;;;;;;5111245;28;19920;-87
2023/07/27 10:06:58;;;;;;;;;;;;;;;;;;5112530;28;19941;-88
2023/07/27 10:09:24;;;;;;;;;;;;;;;;;;5112907;28;19920;-87
2023/07/27 10:11:50;;;;;;;;;;;;;;;;;;5112917;28;19920;-87
2023/07/27 10:14:16;;;;;;;;;;;;;;;;;;5112966;28;20370;-87
2023/07/27 10:16:41;;;;;;;;;;;;;;;;;;5094030;28;19920;-87
2023/07/27 10:19:07;;;;;;;;;;;;;;;;;;5112408;28;19920;-87
2023/07/27 10:21:34;;;;;;;;;;;;;;;;;;5112363;28;19924;-87
2023/07/27 10:24:00;;;;;;;;;;;;;;;;;;5109442;28;19981;-87
2023/07/27 10:26:26;;;;;;;;;;;;;;;;;;5093935;28;19989;-87
2023/07/27 10:28:52;;;;;;;;;;;;;;;;;;5102818;28;20014;-87
2023/07/27 10:31:20;;;;;;;;;;;;;;;;;;5091035;28;20376;-86
2023/07/27 10:33:46;;;;;;;;;;;;;;;;;;5107997;28;20150;-88
2023/07/27 10:36:12;;;;;;;;;;;;;;;;;;5107867;28;19920;-87
2023/07/27 10:38:38;;;;;;;;;;;;;;;;;;5091479;28;19965;-87
2023/07/27 10:41:04;;;;;;;;;;;;;;;;;;5091348;28;20253;-87
2023/07/27 10:43:30;;;;;;;;;;;;;;;;;;5080660;28;19920;-89
2023/07/27 10:45:56;;;;;;;;;;;;;;;;;;5088717;28;19924;-86
2023/07/27 10:48:22;;;;;;;;;;;;;;;;;;5090881;28;19943;-88
2023/07/27 10:50:48;;;;;;;;;;;;;;;;;;5092203;28;19921;-88
2023/07/27 10:53:14;;;;;;;;;;;;;;;;;;5091635;28;19927;-88
2023/07/27 10:55:40;;;;;;;;;;;;;;;;;;5127243;27;19924;-88
2023/07/27 10:58:06;;;;;;;;;;;;;;;;;;5119700;27;19981;-93
2023/07/27 11:00:32;;;;;;;;;;;;;;;;;;5080198;28;19932;-87
2023/07/27 11:02:57;;;;;;;;;;;;;;;;;;5101394;28;19986;-87
2023/07/27 11:05:23;;;;;;;;;;;;;;;;;;5094117;28;19920;-87
2023/07/27 11:07:49;;;;;;;;;;;;;;;;;;5095257;28;20033;-87
2023/07/27 11:10:20;;;;;;;;;;;;;;;;;;5093909;28;20371;-88
2023/07/27 11:12:49;;;;;;;;;;;;;;;;;;5076850;28;19942;-88
2023/07/27 11:15:15;;;;;;;;;;;;;;;;;;5077117;28;19920;-88
2023/07/27 11:17:41;;;;;;;;;;;;;;;;;;5077661;28;19927;-88
2023/07/27 11:20:06;;;;;;;;;;;;;;;;;;5099648;28;20409;-88
2023/07/27 11:22:34;;;;;;;;;;;;;;;;;;5097463;28;19924;-89
2023/07/27 11:25:00;;;;;;;;;;;;;;;;;;5097404;28;19973;-92
2023/07/27 11:27:26;;;;;;;;;;;;;;;;;;5114915;28;19919;-88
2023/07/27 11:29:52;;;;;;;;;;;;;;;;;;5096717;28;19920;-86
2023/07/27 11:32:18;;;;;;;;;;;;;;;;;;5114130;28;20428;-87
2023/07/27 11:34:44;;;;;;;;;;;;;;;;;;5096701;28;19926;-88
2023/07/27 11:37:10;;;;;;;;;;;;;;;;;;5113427;28;19920;-87
2023/07/27 11:39:36;;;;;;;;;;;;;;;;;;5113649;28;19924;-88
2023/07/27 11:42:02;;;;;;;;;;;;;;;;;;5113128;28;19927;-88
2023/07/27 11:44:28;;;;;;;;;;;;;;;;;;5115257;28;20371;-87
2023/07/27 11:46:55;;;;;;;;;;;;;;;;;;5113628;28;19927;-88
2023/07/27 11:49:21;;;;;;;;;;;;;;;;;;5095994;28;20076;-88
2023/07/27 11:51:47;;;;;;;;;;;;;;;;;;5115126;28;20152;-88
2023/07/27 11:54:13;;;;;;;;;;;;;;;;;;5113164;28;19979;-88
2023/07/27 11:56:39;;;;;;;;;;;;;;;;;;5095876;28;20022;-88
2023/07/27 11:59:05;;;;;;;;;;;;;;;;;;5114851;28;19927;-89
2023/07/27 12:01:31;;;;;;;;;;;;;;;;;;5112985;28;19996;-89
2023/07/27 12:03:57;;;;;;;;;;;;;;;;;;5114447;28;19920;-88
2023/07/27 12:06:28;;;;;;;;;;;;;;;;;;5112740;28;19942;-88
2023/07/27 12:08:54;;;;;;;;;;;;;;;;;;5095874;28;19919;-88
2023/07/27 12:11:20;;;;;;;;;;;;;;;;;;5112997;28;19927;-88
2023/07/27 12:13:46;;;;;;;;;;;;;;;;;;5096038;28;19924;-88
2023/07/27 12:16:12;;;;;;;;;;;;;;;;;;5112573;28;19975;-86
2023/07/27 12:18:37;;;;;;;;;;;;;;;;;;5112600;28;19923;-87
2023/07/27 12:21:03;;;;;;;;;;;;;;;;;;5114058;28;19934;-87
2023/07/27 12:23:29;;;;;;;;;;;;;;;;;;5095583;28;19919;-87
2023/07/27 12:25:55;;;;;;;;;;;;;;;;;;5113969;28;19959;-87
2023/07/27 12:28:21;;;;;;;;;;;;;;;;;;5113688;28;19920;-84
2023/07/27 12:30:47;;;;;;;;;;;;;;;;;;5114014;28;19963;-87
2023/07/27 12:33:13;;;;;;;;;;;;;;;;;;5112234;28;19919;-87
2023/07/27 12:35:39;;;;;;;;;;;;;;;;;;5112354;28;20459;-87
2023/07/27 12:38:05;;;;;;;;;;;;;;;;;;5112153;28;20053;-87
2023/07/27 12:40:31;;;;;;;;;;;;;;;;;;5112263;28;19920;-87
2023/07/27 12:42:58;;;;;;;;;;;;;;;;;;5112544;28;19931;-87
2023/07/27 12:45:26;;;;;;;;;;;;;;;;;;5095536;28;19920;-88
2023/07/27 12:47:52;;;;;;;;;;;;;;;;;;5095103;28;19935;-88
2023/07/27 12:50:18;;;;;;;;;;;;;;;;;;5094774;28;20283;-87
2023/07/27 12:52:44;;;;;;;;;;;;;;;;;;5111978;28;19928;-86
2023/07/27 12:55:12;;;;;;;;;;;;;;;;;;5112124;28;19973;-86
2023/07/27 12:57:38;;;;;;;;;;;;;;;;;;5113288;28;20310;-88
2023/07/27 13:00:08;;;;;;;;;;;;;;;;;;5095038;28;20021;-86
2023/07/27 13:02:33;;;;;;;;;;;;;;;;;;5112073;28;20002;-86
2023/07/27 13:05:01;;;;;;;;;;;;;;;;;;5104878;28;20210;-91
2023/07/27 13:07:27;;;;;;;;;;;;;;;;;;5091756;28;20150;-86
2023/07/27 13:09:55;;;;;;;;;;;;;;;;;;5091709;28;20197;-87
2023/07/27 13:12:20;;;;;;;;;;;;;;;;;;5092068;28;20511;-87
2023/07/27 13:14:46;;;;;;;;;;;;;;;;;;5093054;28;19924;-87
2023/07/27 13:17:12;;;;;;;;;;;;;;;;;;5091239;28;19920;-87
2023/07/27 13:19:38;;;;;;;;;;;;;;;;;;5091535;28;19920;-87
2023/07/27 13:22:04;;;;;;;;;;;;;;;;;;5091661;28;20313;-87
2023/07/27 13:24:30;;;;;;;;;;;;;;;;;;5092015;28;20268;-87
2023/07/27 13:26:56;;;;;;;;;;;;;;;;;;5092967;28;20014;-87
2023/07/27 13:29:22;;;;;;;;;;;;;;;;;;5093254;28;20002;-87
2023/07/27 13:31:48;;;;;;;;;;;;;;;;;;5091535;28;19949;-87
2023/07/27 13:34:14;;;;;;;;;;;;;;;;;;5091403;28;19924;-87
2023/07/27 13:36:40;;;;;;;;;;;;;;;;;;5091261;28;19924;-87
2023/07/27 13:39:06;;;;;;;;;;;;;;;;;;5074623;28;20016;-87
2023/07/27 13:41:32;;;;;;;;;;;;;;;;;;5091622;28;20180;-87
2023/07/27 13:43:58;;;;;;;;;;;;;;;;;;5074765;28;20072;-87
2023/07/27 13:46:24;;;;;;;;;;;;;;;;;;5091477;28;20283;-87
2023/07/27 13:48:50;;;;;;;;;;;;;;;;;;5074486;28;19928;-87
2023/07/27 13:51:16;;;;;;;;;;;;;;;;;;5074321;28;19920;-87
2023/07/27 13:53:42;;;;;;;;;;;;;;;;;;5091174;28;19920;-87
2023/07/27 13:56:08;;;;;;;;;;;;;;;;;;5091280;28;20325;-87
2023/07/27 13:58:34;;;;;;;;;;;;;;;;;;5092650;28;19924;-87
2023/07/27 14:00:59;;;;;;;;;;;;;;;;;;5091034;28;19924;-87
2023/07/27 14:03:25;;;;;;;;;;;;;;;;;;5092336;28;20195;-87
2023/07/27 14:05:51;;;;;;;;;;;;;;;;;;5074240;28;19920;-87
2023/07/27 14:08:17;;;;;;;;;;;;;;;;;;5092532;28;19920;-87
2023/07/27 14:10:43;;;;;;;;;;;;;;;;;;5091264;28;19920;-87
2023/07/27 14:13:09;;;;;;;;;;;;;;;;;;5091079;28;19928;-87
2023/07/27 14:15:35;;;;;;;;;;;;;;;;;;5092552;28;19920;-87
2023/07/27 14:18:01;;;;;;;;;;;;;;;;;;5090913;28;19920;-87
2023/07/27 14:20:27;;;;;;;;;;;;;;;;;;5074080;28;19916;-87
2023/07/27 14:22:53;;;;;;;;;;;;;;;;;;5092469;28;19920;-87
2023/07/27 14:25:19;;;;;;;;;;;;;;;;;;5090866;28;19928;-87
2023/07/27 14:27:45;;;;;;;;;;;;;;;;;;5091033;28;19997;-88
2023/07/27 14:30:10;;;;;;;;;;;;;;;;;;5094666;28;19920;-88
2023/07/27 14:32:36;;;;;;;;;;;;;;;;;;5094885;28;19920;-87
2023/07/27 14:35:02;;;;;;;;;;;;;;;;;;5096138;28;19923;-87
2023/07/27 14:37:28;;;;;;;;;;;;;;;;;;5094725;28;19924;-88
2023/07/27 14:39:54;;;;;;;;;;;;;;;;;;5094892;28;20272;-88
2023/07/27 14:42:20;;;;;;;;;;;;;;;;;;5104173;28;20275;-88
2023/07/27 14:44:47;;;;;;;;;;;;;;;;;;5114947;28;19924;-88
2023/07/27 14:47:13;;;;;;;;;;;;;;;;;;5116054;28;20420;-88
2023/07/27 14:49:39;;;;;;;;;;;;;;;;;;5114792;28;20006;-87
2023/07/27 14:52:05;;;;;;;;;;;;;;;;;;5116247;28;19920;-89
2023/07/27 14:54:31;;;;;;;;;;;;;;;;;;5115102;28;19938;-88
2023/07/27 14:56:56;;;;;;;;;;;;;;;;;;5114264;28;19924;-88
2023/07/27 14:59:23;;;;;;;;;;;;;;;;;;5114591;28;20012;-90
2023/07/27 15:01:48;;;;;;;;;;;;;;;;;;5114588;28;20273;-91
2023/07/27 15:04:14;;;;;;;;;;;;;;;;;;5097891;28;19920;-89
2023/07/27 15:06:40;;;;;;;;;;;;;;;;;;5114556;28;20367;-90
2023/07/27 15:09:06;;;;;;;;;;;;;;;;;;5114937;28;20051;-89
2023/07/27 15:11:32;;;;;;;;;;;;;;;;;;5114858;28;20365;-89
2023/07/27 15:13:58;;;;;;;;;;;;;;;;;;5114933;28;20472;-90
2023/07/27 15:16:25;;;;;;;;;;;;;;;;;;5114445;28;20386;-90
2023/07/27 15:18:51;;;;;;;;;;;;;;;;;;5097446;28;20430;-90
2023/07/27 15:21:17;;;;;;;;;;;;;;;;;;5114210;28;20046;-90
2023/07/27 15:23:43;;;;;;;;;;;;;;;;;;5114717;28;19919;-91
2023/07/27 15:26:09;;;;;;;;;;;;;;;;;;5097670;28;19926;-90
2023/07/27 15:28:35;;;;;;;;;;;;;;;;;;5097228;28;19946;-89
2023/07/27 15:31:03;;;;;;;;;;;;;;;;;;5114067;28;19920;-90
2023/07/27 15:33:29;;;;;;;;;;;;;;;;;;5097175;28;19993;-91
2023/07/27 15:35:55;;;;;;;;;;;;;;;;;;5097071;28;19920;-91
2023/07/27 15:38:21;;;;;;;;;;;;;;;;;;5096623;28;19924;-90
2023/07/27 15:40:47;;;;;;;;;;;;;;;;;;5096203;28;19951;-90
2023/07/27 15:43:13;;;;;;;;;;;;;;;;;;5096762;28;19919;-90
2023/07/27 15:45:39;;;;;;;;;;;;;;;;;;5114276;28;19927;-91
2023/07/27 15:48:05;;;;;;;;;;;;;;;;;;5113674;28;20382;-89
2023/07/27 15:50:31;;;;;;;;;;;;;;;;;;5115118;28;19916;-90
2023/07/27 15:52:57;;;;;;;;;;;;;;;;;;5113768;28;20011;-89
2023/07/27 15:55:22;;;;;;;;;;;;;;;;;;5113375;28;20450;-90
2023/07/27 15:57:48;;;;;;;;;;;;;;;;;;5096970;28;19927;-91
2023/07/27 16:00:14;;;;;;;;;;;;;;;;;;5096897;28;20383;-91
2023/07/27 16:02:40;;;;;;;;;;;;;;;;;;5096559;28;19935;-91
2023/07/27 16:05:06;;;;;;;;;;;;;;;;;;5113821;28;19977;-90
2023/07/27 16:07:32;;;;;;;;;;;;;;;;;;5113510;28;19967;-90
2023/07/27 16:09:58;;;;;;;;;;;;;;;;;;5113423;28;19962;-90
2023/07/27 16:12:24;;;;;;;;;;;;;;;;;;5096345;28;19926;-90
2023/07/27 16:14:50;;;;;;;;;;;;;;;;;;5112967;28;20310;-91
2023/07/27 16:17:16;;;;;;;;;;;;;;;;;;5113679;28;20374;-90
2023/07/27 16:19:42;;;;;;;;;;;;;;;;;;5113291;28;19920;-90
2023/07/27 16:22:08;;;;;;;;;;;;;;;;;;5113097;28;20019;-90
2023/07/27 16:24:34;;;;;;;;;;;;;;;;;;5114451;28;19969;-90
2023/07/27 16:27:00;;;;;;;;;;;;;;;;;;5113083;28;19920;-90
2023/07/27 16:29:26;;;;;;;;;;;;;;;;;;5114268;28;19943;-92
2023/07/27 16:31:52;;;;;;;;;;;;;;;;;;5113110;28;19919;-91
2023/07/27 16:34:18;;;;;;;;;;;;;;;;;;5112968;28;19920;-90
2023/07/27 16:36:44;;;;;;;;;;;;;;;;;;5112539;28;19923;-89